sensor_id;sensor_type;location;lat;lon;timestamp;P1;durP1;ratioP1;P2;durP2;ratioP2
59008;SDS011;44794;42.652;23.318;2023-02-03T00:01:56;5.35;;;3.08;;
59008;SDS011;44794;42.652;23.318;2023-02-03T00:04:22;5.57;;;3.08;;
59008;SDS011;44794;42.652;23.318;2023-02-03T00:06:47;6.15;;;3.25;;
59008;SDS011;44794;42.652;23.318;2023-02-03T00:09:13;7.38;;;3.40;;
59008;SDS011;44794;42.652;23.318;2023-02-03T00:11:39;6.75;;;3.42;;
59008;SDS011;44794;42.652;23.318;2023-02-03T00:14:05;5.68;;;2.75;;
59008;SDS011;44794;42.652;23.318;2023-02-03T00:16:32;6.22;;;3.15;;
59008;SDS011;44794;42.652;23.318;2023-02-03T00:18:58;4.70;;;2.92;;
59008;SDS011;44794;42.652;23.318;2023-02-03T00:21:23;5.30;;;3.40;;
59008;SDS011;44794;42.652;23.318;2023-02-03T00:23:48;6.53;;;3.67;;
59008;SDS011;44794;42.652;23.318;2023-02-03T00:26:15;6.35;;;3.70;;
59008;SDS011;44794;42.652;23.318;2023-02-03T00:28:41;7.47;;;4.25;;
59008;SDS011;44794;42.652;23.318;2023-02-03T00:31:13;6.82;;;4.22;;
59008;SDS011;44794;42.652;23.318;2023-02-03T00:33:40;5.95;;;4.30;;
59008;SDS011;44794;42.652;23.318;2023-02-03T00:36:06;10.25;;;4.72;;
59008;SDS011;44794;42.652;23.318;2023-02-03T00:38:32;9.55;;;4.53;;
59008;SDS011;44794;42.652;23.318;2023-02-03T00:40:57;6.68;;;4.05;;
59008;SDS011;44794;42.652;23.318;2023-02-03T00:43:23;6.40;;;4.35;;
59008;SDS011;44794;42.652;23.318;2023-02-03T00:45:48;7.82;;;4.78;;
59008;SDS011;44794;42.652;23.318;2023-02-03T00:48:13;6.93;;;4.03;;
59008;SDS011;44794;42.652;23.318;2023-02-03T00:50:39;8.48;;;5.00;;
59008;SDS011;44794;42.652;23.318;2023-02-03T00:53:05;6.88;;;4.15;;
59008;SDS011;44794;42.652;23.318;2023-02-03T00:55:30;8.38;;;4.57;;
59008;SDS011;44794;42.652;23.318;2023-02-03T00:57:56;5.82;;;3.78;;
59008;SDS011;44794;42.652;23.318;2023-02-03T01:00:21;5.53;;;4.00;;
59008;SDS011;44794;42.652;23.318;2023-02-03T01:02:47;5.80;;;3.17;;
59008;SDS011;44794;42.652;23.318;2023-02-03T01:05:12;5.55;;;3.40;;
59008;SDS011;44794;42.652;23.318;2023-02-03T01:07:38;6.75;;;3.03;;
59008;SDS011;44794;42.652;23.318;2023-02-03T01:10:03;6.47;;;3.25;;
59008;SDS011;44794;42.652;23.318;2023-02-03T01:12:30;6.07;;;3.35;;
59008;SDS011;44794;42.652;23.318;2023-02-03T01:14:56;4.70;;;2.92;;
59008;SDS011;44794;42.652;23.318;2023-02-03T01:17:24;4.20;;;2.70;;
59008;SDS011;44794;42.652;23.318;2023-02-03T01:19:50;3.17;;;2.10;;
59008;SDS011;44794;42.652;23.318;2023-02-03T01:22:16;4.72;;;2.72;;
59008;SDS011;44794;42.652;23.318;2023-02-03T01:24:42;3.33;;;2.28;;
59008;SDS011;44794;42.652;23.318;2023-02-03T01:27:07;3.47;;;2.40;;
59008;SDS011;44794;42.652;23.318;2023-02-03T01:29:33;5.68;;;2.72;;
59008;SDS011;44794;42.652;23.318;2023-02-03T01:31:58;3.53;;;2.47;;
59008;SDS011;44794;42.652;23.318;2023-02-03T01:34:24;4.05;;;2.40;;
59008;SDS011;44794;42.652;23.318;2023-02-03T01:36:49;2.85;;;1.90;;
59008;SDS011;44794;42.652;23.318;2023-02-03T01:39:15;3.13;;;2.28;;
59008;SDS011;44794;42.652;23.318;2023-02-03T01:41:41;3.20;;;2.13;;
59008;SDS011;44794;42.652;23.318;2023-02-03T01:47:17;2.92;;;1.92;;
59008;SDS011;44794;42.652;23.318;2023-02-03T01:52:27;4.03;;;2.45;;
59008;SDS011;44794;42.652;23.318;2023-02-03T01:54:53;3.75;;;2.20;;
59008;SDS011;44794;42.652;23.318;2023-02-03T01:57:23;5.13;;;2.05;;
59008;SDS011;44794;42.652;23.318;2023-02-03T01:59:57;5.03;;;2.70;;
59008;SDS011;44794;42.652;23.318;2023-02-03T02:02:24;3.03;;;2.30;;
59008;SDS011;44794;42.652;23.318;2023-02-03T02:07:35;3.28;;;2.40;;
59008;SDS011;44794;42.652;23.318;2023-02-03T02:10:03;3.88;;;2.30;;
59008;SDS011;44794;42.652;23.318;2023-02-03T02:12:29;4.45;;;2.67;;
59008;SDS011;44794;42.652;23.318;2023-02-03T02:14:54;4.32;;;3.08;;
59008;SDS011;44794;42.652;23.318;2023-02-03T02:19:57;7.25;;;3.08;;
59008;SDS011;44794;42.652;23.318;2023-02-03T02:42:45;4.45;;;2.72;;
59008;SDS011;44794;42.652;23.318;2023-02-03T02:45:30;7.60;;;3.25;;
59008;SDS011;44794;42.652;23.318;2023-02-03T02:48:12;5.18;;;2.80;;
59008;SDS011;44794;42.652;23.318;2023-02-03T02:50:45;5.25;;;2.90;;
59008;SDS011;44794;42.652;23.318;2023-02-03T02:53:15;4.82;;;2.85;;
59008;SDS011;44794;42.652;23.318;2023-02-03T02:55:45;3.45;;;2.47;;
59008;SDS011;44794;42.652;23.318;2023-02-03T02:58:11;3.78;;;2.65;;
59008;SDS011;44794;42.652;23.318;2023-02-03T03:00:40;3.67;;;2.90;;
59008;SDS011;44794;42.652;23.318;2023-02-03T03:03:29;3.55;;;2.92;;
59008;SDS011;44794;42.652;23.318;2023-02-03T03:05:58;6.75;;;3.00;;
59008;SDS011;44794;42.652;23.318;2023-02-03T03:08:47;4.03;;;3.25;;
59008;SDS011;44794;42.652;23.318;2023-02-03T03:11:13;5.25;;;3.30;;
59008;SDS011;44794;42.652;23.318;2023-02-03T03:13:55;4.85;;;2.85;;
59008;SDS011;44794;42.652;23.318;2023-02-03T03:16:25;4.90;;;2.85;;
59008;SDS011;44794;42.652;23.318;2023-02-03T03:23:53;4.00;;;3.10;;
59008;SDS011;44794;42.652;23.318;2023-02-03T03:26:23;3.72;;;2.90;;
59008;SDS011;44794;42.652;23.318;2023-02-03T03:29:14;4.40;;;3.10;;
59008;SDS011;44794;42.652;23.318;2023-02-03T03:31:44;4.90;;;3.10;;
59008;SDS011;44794;42.652;23.318;2023-02-03T03:34:10;5.15;;;3.13;;
59008;SDS011;44794;42.652;23.318;2023-02-03T03:44:38;3.45;;;2.55;;
59008;SDS011;44794;42.652;23.318;2023-02-03T03:47:11;3.65;;;2.95;;
59008;SDS011;44794;42.652;23.318;2023-02-03T03:49:41;4.20;;;2.97;;
59008;SDS011;44794;42.652;23.318;2023-02-03T03:52:10;3.72;;;2.20;;
59008;SDS011;44794;42.652;23.318;2023-02-03T03:54:42;4.45;;;2.67;;
59008;SDS011;44794;42.652;23.318;2023-02-03T03:57:53;4.07;;;3.05;;
59008;SDS011;44794;42.652;23.318;2023-02-03T04:00:05;4.30;;;2.70;;
59008;SDS011;44794;42.652;23.318;2023-02-03T04:02:33;6.03;;;3.05;;
59008;SDS011;44794;42.652;23.318;2023-02-03T04:05:03;4.00;;;2.83;;
59008;SDS011;44794;42.652;23.318;2023-02-03T04:07:36;5.45;;;2.85;;
59008;SDS011;44794;42.652;23.318;2023-02-03T04:10:13;4.18;;;2.38;;
59008;SDS011;44794;42.652;23.318;2023-02-03T04:12:40;5.65;;;3.20;;
59008;SDS011;44794;42.652;23.318;2023-02-03T04:15:05;5.60;;;3.22;;
59008;SDS011;44794;42.652;23.318;2023-02-03T04:17:31;5.53;;;3.63;;
59008;SDS011;44794;42.652;23.318;2023-02-03T04:19:58;5.90;;;3.63;;
59008;SDS011;44794;42.652;23.318;2023-02-03T04:22:23;5.68;;;3.05;;
59008;SDS011;44794;42.652;23.318;2023-02-03T04:24:48;5.07;;;3.05;;
59008;SDS011;44794;42.652;23.318;2023-02-03T04:27:14;4.65;;;2.85;;
59008;SDS011;44794;42.652;23.318;2023-02-03T04:29:39;5.30;;;2.80;;
59008;SDS011;44794;42.652;23.318;2023-02-03T04:32:05;5.35;;;3.58;;
59008;SDS011;44794;42.652;23.318;2023-02-03T04:34:30;6.22;;;3.63;;
59008;SDS011;44794;42.652;23.318;2023-02-03T04:36:55;5.68;;;3.30;;
59008;SDS011;44794;42.652;23.318;2023-02-03T04:39:21;6.18;;;3.63;;
59008;SDS011;44794;42.652;23.318;2023-02-03T04:41:46;6.00;;;3.38;;
59008;SDS011;44794;42.652;23.318;2023-02-03T04:44:12;6.00;;;3.83;;
59008;SDS011;44794;42.652;23.318;2023-02-03T04:46:37;4.55;;;4.07;;
59008;SDS011;44794;42.652;23.318;2023-02-03T04:49:02;5.65;;;3.40;;
59008;SDS011;44794;42.652;23.318;2023-02-03T04:51:28;4.55;;;3.85;;
59008;SDS011;44794;42.652;23.318;2023-02-03T04:53:53;6.82;;;3.70;;
59008;SDS011;44794;42.652;23.318;2023-02-03T04:56:19;7.22;;;4.13;;
59008;SDS011;44794;42.652;23.318;2023-02-03T04:58:44;7.72;;;4.40;;
59008;SDS011;44794;42.652;23.318;2023-02-03T05:01:09;6.18;;;4.20;;
59008;SDS011;44794;42.652;23.318;2023-02-03T05:03:35;6.88;;;3.22;;
59008;SDS011;44794;42.652;23.318;2023-02-03T05:06:01;6.75;;;4.32;;
59008;SDS011;44794;42.652;23.318;2023-02-03T05:08:27;6.97;;;4.50;;
59008;SDS011;44794;42.652;23.318;2023-02-03T05:10:53;5.10;;;3.85;;
59008;SDS011;44794;42.652;23.318;2023-02-03T05:13:18;6.82;;;4.70;;
59008;SDS011;44794;42.652;23.318;2023-02-03T05:15:44;6.85;;;4.35;;
59008;SDS011;44794;42.652;23.318;2023-02-03T05:18:09;7.70;;;4.88;;
59008;SDS011;44794;42.652;23.318;2023-02-03T05:20:34;8.63;;;5.10;;
59008;SDS011;44794;42.652;23.318;2023-02-03T05:23:00;6.80;;;4.78;;
59008;SDS011;44794;42.652;23.318;2023-02-03T05:25:26;8.02;;;4.22;;
59008;SDS011;44794;42.652;23.318;2023-02-03T05:27:51;6.63;;;4.40;;
59008;SDS011;44794;42.652;23.318;2023-02-03T05:30:16;6.95;;;4.28;;
59008;SDS011;44794;42.652;23.318;2023-02-03T05:32:42;6.65;;;4.57;;
59008;SDS011;44794;42.652;23.318;2023-02-03T05:35:07;7.90;;;4.60;;
59008;SDS011;44794;42.652;23.318;2023-02-03T05:37:33;8.05;;;5.40;;
59008;SDS011;44794;42.652;23.318;2023-02-03T05:39:58;6.30;;;4.10;;
59008;SDS011;44794;42.652;23.318;2023-02-03T05:42:47;7.07;;;4.63;;
59008;SDS011;44794;42.652;23.318;2023-02-03T05:45:13;7.20;;;4.47;;
59008;SDS011;44794;42.652;23.318;2023-02-03T05:47:39;6.00;;;4.50;;
59008;SDS011;44794;42.652;23.318;2023-02-03T05:50:05;5.75;;;4.32;;
59008;SDS011;44794;42.652;23.318;2023-02-03T05:52:30;7.38;;;5.00;;
59008;SDS011;44794;42.652;23.318;2023-02-03T05:54:56;5.47;;;4.30;;
59008;SDS011;44794;42.652;23.318;2023-02-03T05:57:21;6.93;;;4.93;;
59008;SDS011;44794;42.652;23.318;2023-02-03T05:59:47;7.90;;;5.10;;
59008;SDS011;44794;42.652;23.318;2023-02-03T06:02:13;5.78;;;4.38;;
59008;SDS011;44794;42.652;23.318;2023-02-03T06:04:39;8.90;;;4.72;;
59008;SDS011;44794;42.652;23.318;2023-02-03T06:07:05;7.70;;;4.78;;
59008;SDS011;44794;42.652;23.318;2023-02-03T06:09:30;7.82;;;4.55;;
59008;SDS011;44794;42.652;23.318;2023-02-03T06:11:56;8.15;;;4.75;;
59008;SDS011;44794;42.652;23.318;2023-02-03T06:14:21;5.95;;;4.18;;
59008;SDS011;44794;42.652;23.318;2023-02-03T06:16:46;5.78;;;3.90;;
59008;SDS011;44794;42.652;23.318;2023-02-03T06:19:12;5.68;;;3.65;;
59008;SDS011;44794;42.652;23.318;2023-02-03T06:21:37;6.13;;;4.53;;
59008;SDS011;44794;42.652;23.318;2023-02-03T06:24:03;5.30;;;3.78;;
59008;SDS011;44794;42.652;23.318;2023-02-03T06:26:28;5.35;;;4.13;;
59008;SDS011;44794;42.652;23.318;2023-02-03T06:28:53;5.22;;;3.70;;
59008;SDS011;44794;42.652;23.318;2023-02-03T06:31:19;3.60;;;2.53;;
59008;SDS011;44794;42.652;23.318;2023-02-03T06:33:44;5.47;;;3.47;;
59008;SDS011;44794;42.652;23.318;2023-02-03T06:36:10;7.68;;;3.65;;
59008;SDS011;44794;42.652;23.318;2023-02-03T06:38:35;5.47;;;3.60;;
59008;SDS011;44794;42.652;23.318;2023-02-03T06:41:01;6.47;;;3.38;;
59008;SDS011;44794;42.652;23.318;2023-02-03T06:43:26;4.70;;;3.20;;
59008;SDS011;44794;42.652;23.318;2023-02-03T06:45:52;3.78;;;3.10;;
59008;SDS011;44794;42.652;23.318;2023-02-03T06:48:17;5.63;;;3.85;;
59008;SDS011;44794;42.652;23.318;2023-02-03T06:50:43;4.78;;;3.38;;
59008;SDS011;44794;42.652;23.318;2023-02-03T06:53:09;7.05;;;3.03;;
59008;SDS011;44794;42.652;23.318;2023-02-03T06:55:34;3.50;;;2.88;;
59008;SDS011;44794;42.652;23.318;2023-02-03T06:58:00;6.30;;;3.30;;
59008;SDS011;44794;42.652;23.318;2023-02-03T07:00:25;4.18;;;2.55;;
59008;SDS011;44794;42.652;23.318;2023-02-03T07:02:52;5.40;;;3.40;;
59008;SDS011;44794;42.652;23.318;2023-02-03T07:05:19;4.38;;;2.95;;
59008;SDS011;44794;42.652;23.318;2023-02-03T07:07:44;4.35;;;3.45;;
59008;SDS011;44794;42.652;23.318;2023-02-03T07:10:10;6.13;;;4.28;;
59008;SDS011;44794;42.652;23.318;2023-02-03T07:12:36;7.90;;;5.07;;
59008;SDS011;44794;42.652;23.318;2023-02-03T07:15:02;5.13;;;3.38;;
59008;SDS011;44794;42.652;23.318;2023-02-03T07:17:28;4.63;;;3.25;;
59008;SDS011;44794;42.652;23.318;2023-02-03T07:19:53;6.55;;;3.97;;
59008;SDS011;44794;42.652;23.318;2023-02-03T07:22:19;6.30;;;3.63;;
59008;SDS011;44794;42.652;23.318;2023-02-03T07:24:44;4.97;;;3.28;;
59008;SDS011;44794;42.652;23.318;2023-02-03T07:27:10;9.30;;;4.47;;
59008;SDS011;44794;42.652;23.318;2023-02-03T07:29:35;8.82;;;5.07;;
59008;SDS011;44794;42.652;23.318;2023-02-03T07:32:02;4.85;;;3.67;;
59008;SDS011;44794;42.652;23.318;2023-02-03T07:34:29;6.70;;;3.85;;
59008;SDS011;44794;42.652;23.318;2023-02-03T07:36:55;6.30;;;3.50;;
59008;SDS011;44794;42.652;23.318;2023-02-03T07:39:21;8.35;;;5.38;;
59008;SDS011;44794;42.652;23.318;2023-02-03T07:41:46;6.95;;;3.88;;
59008;SDS011;44794;42.652;23.318;2023-02-03T07:44:12;5.65;;;3.80;;
59008;SDS011;44794;42.652;23.318;2023-02-03T07:46:38;7.55;;;5.40;;
59008;SDS011;44794;42.652;23.318;2023-02-03T07:49:09;10.77;;;6.55;;
59008;SDS011;44794;42.652;23.318;2023-02-03T07:51:35;11.20;;;6.25;;
59008;SDS011;44794;42.652;23.318;2023-02-03T07:54:01;9.35;;;4.80;;
59008;SDS011;44794;42.652;23.318;2023-02-03T07:56:26;7.63;;;5.28;;
59008;SDS011;44794;42.652;23.318;2023-02-03T07:58:52;8.82;;;6.03;;
59008;SDS011;44794;42.652;23.318;2023-02-03T08:01:18;5.43;;;3.15;;
59008;SDS011;44794;42.652;23.318;2023-02-03T08:03:44;7.78;;;4.30;;
59008;SDS011;44794;42.652;23.318;2023-02-03T08:06:09;7.45;;;4.80;;
59008;SDS011;44794;42.652;23.318;2023-02-03T08:08:35;7.70;;;4.15;;
59008;SDS011;44794;42.652;23.318;2023-02-03T08:11:00;5.85;;;3.63;;
59008;SDS011;44794;42.652;23.318;2023-02-03T08:13:26;5.72;;;3.47;;
59008;SDS011;44794;42.652;23.318;2023-02-03T08:15:52;5.90;;;3.65;;
59008;SDS011;44794;42.652;23.318;2023-02-03T08:18:17;7.20;;;3.47;;
59008;SDS011;44794;42.652;23.318;2023-02-03T08:20:43;5.13;;;2.85;;
59008;SDS011;44794;42.652;23.318;2023-02-03T08:23:08;10.85;;;5.00;;
59008;SDS011;44794;42.652;23.318;2023-02-03T08:25:34;7.43;;;4.00;;
59008;SDS011;44794;42.652;23.318;2023-02-03T08:27:59;5.38;;;3.70;;
59008;SDS011;44794;42.652;23.318;2023-02-03T08:30:25;5.85;;;3.28;;
59008;SDS011;44794;42.652;23.318;2023-02-03T08:32:50;14.10;;;6.70;;
59008;SDS011;44794;42.652;23.318;2023-02-03T08:35:16;14.25;;;8.57;;
59008;SDS011;44794;42.652;23.318;2023-02-03T08:37:42;6.82;;;4.25;;
59008;SDS011;44794;42.652;23.318;2023-02-03T08:40:08;6.15;;;3.22;;
59008;SDS011;44794;42.652;23.318;2023-02-03T08:42:34;5.55;;;3.60;;
59008;SDS011;44794;42.652;23.318;2023-02-03T08:45:00;4.53;;;3.30;;
59008;SDS011;44794;42.652;23.318;2023-02-03T08:47:25;6.57;;;3.60;;
59008;SDS011;44794;42.652;23.318;2023-02-03T08:49:51;13.23;;;4.50;;
59008;SDS011;44794;42.652;23.318;2023-02-03T08:52:17;6.78;;;3.60;;
59008;SDS011;44794;42.652;23.318;2023-02-03T08:54:43;4.82;;;3.00;;
59008;SDS011;44794;42.652;23.318;2023-02-03T08:57:08;3.97;;;2.60;;
59008;SDS011;44794;42.652;23.318;2023-02-03T08:59:36;5.80;;;3.00;;
59008;SDS011;44794;42.652;23.318;2023-02-03T09:02:03;6.45;;;4.32;;
59008;SDS011;44794;42.652;23.318;2023-02-03T09:04:29;7.57;;;4.68;;
59008;SDS011;44794;42.652;23.318;2023-02-03T09:06:57;8.80;;;4.35;;
59008;SDS011;44794;42.652;23.318;2023-02-03T09:09:23;7.20;;;4.47;;
59008;SDS011;44794;42.652;23.318;2023-02-03T09:11:50;5.25;;;3.55;;
59008;SDS011;44794;42.652;23.318;2023-02-03T09:14:16;10.00;;;5.65;;
59008;SDS011;44794;42.652;23.318;2023-02-03T09:16:41;9.95;;;4.97;;
59008;SDS011;44794;42.652;23.318;2023-02-03T09:19:07;8.93;;;3.45;;
59008;SDS011;44794;42.652;23.318;2023-02-03T09:21:33;8.10;;;4.95;;
59008;SDS011;44794;42.652;23.318;2023-02-03T09:23:59;2.95;;;2.47;;
59008;SDS011;44794;42.652;23.318;2023-02-03T09:26:26;6.40;;;3.40;;
59008;SDS011;44794;42.652;23.318;2023-02-03T09:28:51;5.90;;;2.92;;
59008;SDS011;44794;42.652;23.318;2023-02-03T09:31:17;6.95;;;3.70;;
59008;SDS011;44794;42.652;23.318;2023-02-03T09:33:43;14.00;;;3.42;;
59008;SDS011;44794;42.652;23.318;2023-02-03T09:36:09;6.05;;;2.92;;
59008;SDS011;44794;42.652;23.318;2023-02-03T09:38:35;6.53;;;3.60;;
59008;SDS011;44794;42.652;23.318;2023-02-03T09:47:04;5.50;;;3.40;;
59008;SDS011;44794;42.652;23.318;2023-02-03T09:54:47;2.83;;;1.67;;
59008;SDS011;44794;42.652;23.318;2023-02-03T09:57:23;3.13;;;1.98;;
59008;SDS011;44794;42.652;23.318;2023-02-03T09:59:50;4.45;;;3.33;;
59008;SDS011;44794;42.652;23.318;2023-02-03T10:02:21;3.92;;;2.85;;
59008;SDS011;44794;42.652;23.318;2023-02-03T10:05:20;5.10;;;2.83;;
59008;SDS011;44794;42.652;23.318;2023-02-03T10:07:55;3.95;;;2.83;;
59008;SDS011;44794;42.652;23.318;2023-02-03T10:10:47;5.93;;;3.03;;
59008;SDS011;44794;42.652;23.318;2023-02-03T10:13:43;3.55;;;2.42;;
59008;SDS011;44794;42.652;23.318;2023-02-03T10:18:53;5.03;;;3.42;;
59008;SDS011;44794;42.652;23.318;2023-02-03T10:23:53;6.63;;;3.22;;
59008;SDS011;44794;42.652;23.318;2023-02-03T10:26:22;7.03;;;3.15;;
59008;SDS011;44794;42.652;23.318;2023-02-03T10:28:55;3.63;;;2.70;;
59008;SDS011;44794;42.652;23.318;2023-02-03T10:31:23;5.13;;;2.30;;
59008;SDS011;44794;42.652;23.318;2023-02-03T10:34:13;4.90;;;2.80;;
59008;SDS011;44794;42.652;23.318;2023-02-03T10:42:07;6.38;;;3.47;;
59008;SDS011;44794;42.652;23.318;2023-02-03T10:44:45;5.85;;;2.53;;
59008;SDS011;44794;42.652;23.318;2023-02-03T10:47:18;4.50;;;2.88;;
59008;SDS011;44794;42.652;23.318;2023-02-03T10:50:06;4.10;;;3.22;;
59008;SDS011;44794;42.652;23.318;2023-02-03T10:52:39;7.20;;;4.90;;
59008;SDS011;44794;42.652;23.318;2023-02-03T10:55:58;12.93;;;5.10;;
59008;SDS011;44794;42.652;23.318;2023-02-03T10:57:51;8.77;;;4.28;;
59008;SDS011;44794;42.652;23.318;2023-02-03T11:02:55;7.85;;;4.90;;
59008;SDS011;44794;42.652;23.318;2023-02-03T11:05:24;11.48;;;5.38;;
59008;SDS011;44794;42.652;23.318;2023-02-03T11:07:50;6.22;;;3.40;;
59008;SDS011;44794;42.652;23.318;2023-02-03T11:21:27;3.42;;;2.33;;
59008;SDS011;44794;42.652;23.318;2023-02-03T11:26:56;6.07;;;3.40;;
59008;SDS011;44794;42.652;23.318;2023-02-03T11:31:55;9.82;;;6.78;;
59008;SDS011;44794;42.652;23.318;2023-02-03T11:34:29;9.20;;;4.60;;
59008;SDS011;44794;42.652;23.318;2023-02-03T11:36:57;13.23;;;4.70;;
59008;SDS011;44794;42.652;23.318;2023-02-03T11:39:48;4.65;;;3.67;;
59008;SDS011;44794;42.652;23.318;2023-02-03T11:42:21;4.22;;;2.92;;
59008;SDS011;44794;42.652;23.318;2023-02-03T11:44:48;7.60;;;3.75;;
59008;SDS011;44794;42.652;23.318;2023-02-03T11:47:14;5.63;;;2.70;;
59008;SDS011;44794;42.652;23.318;2023-02-03T11:49:45;5.72;;;3.70;;
59008;SDS011;44794;42.652;23.318;2023-02-03T12:01:17;4.25;;;3.40;;
59008;SDS011;44794;42.652;23.318;2023-02-03T12:04:12;6.05;;;3.50;;
59008;SDS011;44794;42.652;23.318;2023-02-03T12:11:54;4.18;;;2.63;;
59008;SDS011;44794;42.652;23.318;2023-02-03T12:31:25;4.03;;;2.70;;
59008;SDS011;44794;42.652;23.318;2023-02-03T12:34:02;3.42;;;2.35;;
59008;SDS011;44794;42.652;23.318;2023-02-03T12:36:40;3.25;;;2.10;;
59008;SDS011;44794;42.652;23.318;2023-02-03T12:53:20;5.28;;;2.70;;
59008;SDS011;44794;42.652;23.318;2023-02-03T12:56:00;4.85;;;3.15;;
59008;SDS011;44794;42.652;23.318;2023-02-03T13:04:02;5.60;;;2.90;;
59008;SDS011;44794;42.652;23.318;2023-02-03T13:09:20;5.30;;;3.10;;
59008;SDS011;44794;42.652;23.318;2023-02-03T13:12:12;6.22;;;3.40;;
59008;SDS011;44794;42.652;23.318;2023-02-03T13:20:51;5.60;;;3.35;;
59008;SDS011;44794;42.652;23.318;2023-02-03T13:23:18;3.63;;;2.60;;
59008;SDS011;44794;42.652;23.318;2023-02-03T13:25:47;4.65;;;2.55;;
59008;SDS011;44794;42.652;23.318;2023-02-03T13:36:29;14.35;;;4.85;;
59008;SDS011;44794;42.652;23.318;2023-02-03T13:41:41;8.15;;;3.65;;
59008;SDS011;44794;42.652;23.318;2023-02-03T13:44:31;6.40;;;2.67;;
59008;SDS011;44794;42.652;23.318;2023-02-03T13:46:58;8.48;;;3.40;;
59008;SDS011;44794;42.652;23.318;2023-02-03T13:49:29;10.55;;;4.50;;
59008;SDS011;44794;42.652;23.318;2023-02-03T13:51:57;6.97;;;4.10;;
59008;SDS011;44794;42.652;23.318;2023-02-03T13:56:56;7.78;;;4.88;;
59008;SDS011;44794;42.652;23.318;2023-02-03T14:22:52;14.30;;;5.65;;
59008;SDS011;44794;42.652;23.318;2023-02-03T14:25:31;12.07;;;5.03;;
59008;SDS011;44794;42.652;23.318;2023-02-03T14:28:05;8.90;;;5.30;;
59008;SDS011;44794;42.652;23.318;2023-02-03T14:30:49;9.02;;;5.50;;
59008;SDS011;44794;42.652;23.318;2023-02-03T14:49:51;11.65;;;4.72;;
59008;SDS011;44794;42.652;23.318;2023-02-03T14:57:55;8.65;;;4.47;;
59008;SDS011;44794;42.652;23.318;2023-02-03T15:00:33;5.10;;;3.55;;
59008;SDS011;44794;42.652;23.318;2023-02-03T15:07:56;8.65;;;4.60;;
59008;SDS011;44794;42.652;23.318;2023-02-03T15:10:25;6.32;;;3.50;;
59008;SDS011;44794;42.652;23.318;2023-02-03T15:12:54;10.05;;;4.60;;
59008;SDS011;44794;42.652;23.318;2023-02-03T15:15:39;9.60;;;4.68;;
59008;SDS011;44794;42.652;23.318;2023-02-03T15:18:18;8.05;;;4.18;;
59008;SDS011;44794;42.652;23.318;2023-02-03T15:20:46;10.93;;;4.50;;
59008;SDS011;44794;42.652;23.318;2023-02-03T15:28:23;8.65;;;4.20;;
59008;SDS011;44794;42.652;23.318;2023-02-03T15:30:57;5.53;;;3.85;;
59008;SDS011;44794;42.652;23.318;2023-02-03T15:33:31;11.10;;;4.85;;
59008;SDS011;44794;42.652;23.318;2023-02-03T15:36:06;8.05;;;3.80;;
59008;SDS011;44794;42.652;23.318;2023-02-03T15:41:22;6.47;;;3.20;;
59008;SDS011;44794;42.652;23.318;2023-02-03T15:43:50;9.27;;;3.20;;
59008;SDS011;44794;42.652;23.318;2023-02-03T15:48:55;6.43;;;3.17;;
59008;SDS011;44794;42.652;23.318;2023-02-03T15:51:46;7.75;;;3.42;;
59008;SDS011;44794;42.652;23.318;2023-02-03T15:54:19;7.50;;;3.45;;
59008;SDS011;44794;42.652;23.318;2023-02-03T15:57:08;11.55;;;5.20;;
59008;SDS011;44794;42.652;23.318;2023-02-03T15:59:55;7.30;;;4.45;;
59008;SDS011;44794;42.652;23.318;2023-02-03T16:02:27;8.35;;;4.38;;
59008;SDS011;44794;42.652;23.318;2023-02-03T16:05:04;9.25;;;5.10;;
59008;SDS011;44794;42.652;23.318;2023-02-03T16:07:38;7.72;;;4.80;;
59008;SDS011;44794;42.652;23.318;2023-02-03T16:10:04;6.90;;;4.25;;
59008;SDS011;44794;42.652;23.318;2023-02-03T16:12:30;5.53;;;3.95;;
59008;SDS011;44794;42.652;23.318;2023-02-03T16:14:57;5.97;;;3.85;;
59008;SDS011;44794;42.652;23.318;2023-02-03T16:25:27;5.88;;;3.08;;
59008;SDS011;44794;42.652;23.318;2023-02-03T16:32:30;8.52;;;4.40;;
59008;SDS011;44794;42.652;23.318;2023-02-03T16:35:14;8.88;;;4.13;;
59008;SDS011;44794;42.652;23.318;2023-02-03T16:38:05;8.35;;;5.45;;
59008;SDS011;44794;42.652;23.318;2023-02-03T16:40:51;9.27;;;5.55;;
59008;SDS011;44794;42.652;23.318;2023-02-03T16:43:35;11.55;;;6.00;;
59008;SDS011;44794;42.652;23.318;2023-02-03T16:46:19;7.32;;;4.72;;
59008;SDS011;44794;42.652;23.318;2023-02-03T16:49:03;5.78;;;3.55;;
59008;SDS011;44794;42.652;23.318;2023-02-03T16:51:47;5.40;;;2.28;;
59008;SDS011;44794;42.652;23.318;2023-02-03T16:54:13;6.88;;;3.67;;
59008;SDS011;44794;42.652;23.318;2023-02-03T16:56:39;10.40;;;3.45;;
59008;SDS011;44794;42.652;23.318;2023-02-03T16:59:05;6.47;;;4.07;;
59008;SDS011;44794;42.652;23.318;2023-02-03T17:01:30;4.43;;;2.53;;
59008;SDS011;44794;42.652;23.318;2023-02-03T17:03:56;5.25;;;2.08;;
59008;SDS011;44794;42.652;23.318;2023-02-03T17:06:21;2.95;;;2.08;;
59008;SDS011;44794;42.652;23.318;2023-02-03T17:08:47;3.88;;;2.03;;
59008;SDS011;44794;42.652;23.318;2023-02-03T17:11:16;5.90;;;2.03;;
59008;SDS011;44794;42.652;23.318;2023-02-03T17:13:47;4.15;;;1.70;;
59008;SDS011;44794;42.652;23.318;2023-02-03T17:16:15;4.85;;;2.47;;
59008;SDS011;44794;42.652;23.318;2023-02-03T17:18:43;4.72;;;2.50;;
59008;SDS011;44794;42.652;23.318;2023-02-03T17:21:11;3.92;;;2.03;;
59008;SDS011;44794;42.652;23.318;2023-02-03T17:23:39;2.05;;;1.63;;
59008;SDS011;44794;42.652;23.318;2023-02-03T17:26:05;6.68;;;2.13;;
59008;SDS011;44794;42.652;23.318;2023-02-03T17:28:31;3.22;;;2.33;;
59008;SDS011;44794;42.652;23.318;2023-02-03T17:30:58;4.40;;;2.35;;
59008;SDS011;44794;42.652;23.318;2023-02-03T17:33:25;6.53;;;2.58;;
59008;SDS011;44794;42.652;23.318;2023-02-03T17:36:02;9.73;;;4.07;;
59008;SDS011;44794;42.652;23.318;2023-02-03T17:38:28;3.47;;;2.28;;
59008;SDS011;44794;42.652;23.318;2023-02-03T17:40:54;3.25;;;1.55;;
59008;SDS011;44794;42.652;23.318;2023-02-03T17:43:20;4.05;;;1.77;;
59008;SDS011;44794;42.652;23.318;2023-02-03T17:45:46;4.97;;;3.10;;
59008;SDS011;44794;42.652;23.318;2023-02-03T17:48:11;7.53;;;4.13;;
59008;SDS011;44794;42.652;23.318;2023-02-03T17:50:36;5.93;;;3.10;;
59008;SDS011;44794;42.652;23.318;2023-02-03T17:53:02;5.28;;;3.00;;
59008;SDS011;44794;42.652;23.318;2023-02-03T17:55:28;10.15;;;5.07;;
59008;SDS011;44794;42.652;23.318;2023-02-03T17:57:53;7.65;;;3.97;;
59008;SDS011;44794;42.652;23.318;2023-02-03T18:00:19;4.38;;;2.90;;
59008;SDS011;44794;42.652;23.318;2023-02-03T18:02:47;2.08;;;1.80;;
59008;SDS011;44794;42.652;23.318;2023-02-03T18:05:13;3.05;;;1.40;;
59008;SDS011;44794;42.652;23.318;2023-02-03T18:07:39;6.32;;;3.25;;
59008;SDS011;44794;42.652;23.318;2023-02-03T18:10:04;6.43;;;3.60;;
59008;SDS011;44794;42.652;23.318;2023-02-03T18:12:30;4.95;;;3.20;;
59008;SDS011;44794;42.652;23.318;2023-02-03T18:14:55;5.43;;;2.92;;
59008;SDS011;44794;42.652;23.318;2023-02-03T18:17:21;4.25;;;2.30;;
59008;SDS011;44794;42.652;23.318;2023-02-03T18:19:47;10.20;;;4.32;;
59008;SDS011;44794;42.652;23.318;2023-02-03T18:22:12;4.80;;;2.65;;
59008;SDS011;44794;42.652;23.318;2023-02-03T18:24:38;4.25;;;3.00;;
59008;SDS011;44794;42.652;23.318;2023-02-03T18:27:04;3.55;;;2.45;;
59008;SDS011;44794;42.652;23.318;2023-02-03T18:29:30;4.72;;;2.88;;
59008;SDS011;44794;42.652;23.318;2023-02-03T18:31:55;4.65;;;2.60;;
59008;SDS011;44794;42.652;23.318;2023-02-03T18:34:20;4.07;;;2.35;;
59008;SDS011;44794;42.652;23.318;2023-02-03T18:36:46;4.65;;;2.25;;